Time;durP1;ratioP1;P1;durP2;ratioP2;P2;SDS_P1;SDS_P2;PMS_P1;PMS_P2;Temp;Humidity;BMP_temperature;BMP_pressure;BME280_temperature;BME280_humidity;BME280_pressure;Samples;Min_cycle;Max_cycle;Signal;HPM_P1;HPM_P2
2022/04/18 00:02:19;;;;;;;12.48;5.88;;;;;;;0.48;55.97;100377.75;5095744;28;20064;-77
2022/04/18 00:04:46;;;;;;;10.77;5.45;;;;;;;0.40;55.60;100367.06;5096716;28;20048;-77
2022/04/18 00:07:13;;;;;;;11.15;5.90;;;;;;;0.41;55.83;100376.56;5100091;28;20052;-76
2022/04/18 00:09:40;;;;;;;9.93;5.13;;;;;;;0.47;55.82;100386.25;5100558;28;20062;-77
2022/04/18 00:12:08;;;;;;;10.35;4.70;;;;;;;0.44;55.82;100387.00;5114025;28;20055;-77
2022/04/18 00:14:35;;;;;;;9.70;4.88;;;;;;;0.41;56.19;100384.28;5114304;28;20112;-77
2022/04/18 00:17:02;;;;;;;8.80;4.43;;;;;;;0.40;56.02;100383.38;5097570;28;20054;-77
2022/04/18 00:19:29;;;;;;;9.05;4.32;;;;;;;0.40;55.97;100387.63;5115308;28;20047;-77
2022/04/18 00:21:59;;;;;;;9.63;4.50;;;;;;;0.36;56.23;100384.00;5057213;28;20060;-77
2022/04/18 00:24:26;;;;;;;9.80;5.15;;;;;;;0.38;56.10;100395.25;5074674;28;20048;-78
2022/04/18 00:26:53;;;;;;;13.23;5.05;;;;;;;0.37;56.31;100390.94;5074712;28;20088;-78
2022/04/18 00:29:19;;;;;;;7.75;4.82;;;;;;;0.34;56.42;100401.03;5094782;28;20089;-77
2022/04/18 00:31:47;;;;;;;10.85;4.90;;;;;;;0.18;56.58;100385.63;5096775;28;20105;-77
2022/04/18 00:34:14;;;;;;;11.80;3.65;;;;;;;0.15;56.14;100363.22;5080374;28;20055;-77
2022/04/18 00:36:41;;;;;;;9.13;4.38;;;;;;;0.08;56.78;100361.13;5108453;28;20056;-76
2022/04/18 00:39:08;;;;;;;8.88;4.32;;;;;;;0.22;56.74;100373.84;5076791;28;20109;-78
2022/04/18 00:41:35;;;;;;;9.07;4.45;;;;;;;0.16;57.08;100379.53;5110410;28;20125;-78
2022/04/18 00:44:02;;;;;;;9.20;4.40;;;;;;;0.16;56.69;100374.38;5094531;28;20059;-78
2022/04/18 00:46:30;;;;;;;8.18;4.50;;;;;;;0.11;56.70;100370.69;5094473;28;20040;-78
2022/04/18 00:48:57;;;;;;;15.23;5.22;;;;;;;0.16;56.80;100379.53;5076465;28;20528;-78
2022/04/18 00:51:25;;;;;;;9.32;4.65;;;;;;;0.16;56.79;100382.97;5076406;28;20585;-78
2022/04/18 00:53:55;;;;;;;8.30;4.90;;;;;;;0.14;57.01;100384.56;5076417;28;20052;-78
2022/04/18 00:56:25;;;;;;;10.65;6.53;;;;;;;0.12;57.08;100393.00;5076342;28;20083;-78
2022/04/18 00:58:52;;;;;;;11.60;6.43;;;;;;;0.09;57.16;100373.19;5094602;28;20044;-77
2022/04/18 01:01:20;;;;;;;16.02;9.00;;;;;;;0.06;57.07;100378.13;5094424;28;20060;-77
2022/04/18 01:03:51;;;;;;;17.83;10.13;;;;;;;0.04;57.29;100379.72;5059451;28;20421;-78
2022/04/18 01:06:19;;;;;;;16.60;9.60;;;;;;;-0.12;57.18;100338.63;5076376;28;20040;-78
2022/04/18 01:08:48;;;;;;;18.77;9.73;;;;;;;0.04;57.57;100384.88;5094270;28;20060;-77
2022/04/18 01:11:16;;;;;;;15.52;9.85;;;;;;;0.01;57.64;100378.69;5076120;28;20059;-77
2022/04/18 01:14:03;;;;;;;18.40;9.82;;;;;;;-0.08;57.81;100369.69;5076026;28;20044;-78
2022/04/18 01:16:48;;;;;;;15.25;10.13;;;;;;;-0.15;58.05;100366.69;5094058;28;20056;-78
2022/04/18 01:19:51;;;;;;;19.38;10.18;;;;;;;-0.18;58.21;100359.72;5003886;28;20466;-76
2022/04/18 01:22:44;;;;;;;15.60;9.05;;;;;;;-0.22;57.99;100362.91;5081234;28;20063;-78
2022/04/18 01:31:11;;;;;;;15.52;8.50;;;;;;;-0.23;58.47;100368.88;5076066;28;20094;-76
2022/04/18 01:33:38;;;;;;;14.82;7.78;;;;;;;-0.22;58.60;100368.06;5075772;28;20052;-77
2022/04/18 01:36:07;;;;;;;17.58;8.23;;;;;;;-0.22;58.56;100358.66;5059145;28;20059;-77
2022/04/18 01:38:34;;;;;;;13.50;8.10;;;;;;;-0.30;58.81;100352.25;5058745;28;20124;-77
2022/04/18 01:41:01;;;;;;;14.52;8.32;;;;;;;-0.23;58.61;100359.47;5093969;28;20075;-76
2022/04/18 01:43:28;;;;;;;15.00;9.10;;;;;;;-0.25;58.95;100365.34;5109491;28;20070;-77
2022/04/18 01:45:57;;;;;;;17.75;10.20;;;;;;;-0.33;58.95;100352.06;5109833;28;20068;-77
2022/04/18 01:48:26;;;;;;;17.20;9.77;;;;;;;-0.39;59.66;100349.16;5058721;28;20056;-76
2022/04/18 01:50:53;;;;;;;19.30;11.05;;;;;;;-0.43;59.67;100354.91;5076552;28;20070;-77
2022/04/18 01:53:21;;;;;;;17.42;9.48;;;;;;;-0.36;59.56;100359.63;5075682;28;20455;-77
2022/04/18 01:55:49;;;;;;;16.67;9.95;;;;;;;-0.54;59.71;100331.22;5094483;28;20420;-77
2022/04/18 01:58:16;;;;;;;18.10;9.48;;;;;;;-0.40;60.20;100372.19;5078582;28;20087;-76
2022/04/18 02:00:43;;;;;;;17.98;8.93;;;;;;;-0.47;60.23;100373.53;5075106;28;20062;-78
2022/04/18 02:03:10;;;;;;;14.52;7.70;;;;;;;-0.45;60.43;100364.25;5093250;28;20059;-78
2022/04/18 02:05:37;;;;;;;17.50;8.25;;;;;;;-0.58;60.51;100341.25;5058090;28;20079;-78
2022/04/18 02:08:05;;;;;;;14.05;7.60;;;;;;;-0.43;60.64;100389.19;5058678;28;20052;-77
2022/04/18 02:10:32;;;;;;;14.18;7.65;;;;;;;-0.46;60.82;100368.47;5074663;28;20495;-76
2022/04/18 02:12:59;;;;;;;12.05;6.85;;;;;;;-0.53;60.85;100365.50;5075036;28;20090;-77
2022/04/18 02:15:28;;;;;;;18.95;7.53;;;;;;;-0.46;60.79;100370.16;5074652;28;20052;-77
2022/04/18 02:18:01;;;;;;;15.05;7.15;;;;;;;-0.59;60.95;100344.63;5075317;28;20460;-76
2022/04/18 02:20:28;;;;;;;12.40;7.13;;;;;;;-0.56;60.91;100344.78;5093008;28;20051;-76
2022/04/18 02:22:59;;;;;;;15.43;6.80;;;;;;;-0.39;61.37;100377.41;5092985;28;20581;-77
2022/04/18 02:25:26;;;;;;;11.55;5.70;;;;;;;-0.47;60.85;100353.00;5094930;28;20100;-77
2022/04/18 02:27:58;;;;;;;10.50;5.35;;;;;;;-0.33;60.70;100366.59;5095492;28;20062;-78
2022/04/18 02:30:25;;;;;;;7.57;4.18;;;;;;;-0.29;60.49;100365.97;5113239;28;20088;-78
2022/04/18 02:32:52;;;;;;;10.05;5.20;;;;;;;-0.30;60.57;100361.59;5095385;28;20051;-76
2022/04/18 02:35:22;;;;;;;6.97;3.97;;;;;;;-0.22;60.52;100363.78;5095403;28;20058;-77
2022/04/18 02:37:54;;;;;;;7.03;3.97;;;;;;;-0.21;60.21;100380.97;5095269;28;20048;-78
2022/04/18 02:40:28;;;;;;;8.82;3.95;;;;;;;-0.16;59.94;100376.09;5095220;28;20048;-77
2022/04/18 02:42:55;;;;;;;7.20;3.40;;;;;;;-0.23;60.15;100345.75;5095401;28;20088;-76
2022/04/18 02:45:23;;;;;;;7.57;3.38;;;;;;;-0.05;60.32;100372.41;5107255;28;20112;-77
2022/04/18 02:48:08;;;;;;;7.07;3.38;;;;;;;-0.03;59.92;100369.94;5094023;28;20059;-78
2022/04/18 02:50:39;;;;;;;5.47;2.47;;;;;;;-0.08;59.87;100353.41;5101352;28;20075;-77
2022/04/18 02:53:07;;;;;;;7.32;2.92;;;;;;;0.07;59.83;100366.19;5094612;28;20048;-77
2022/04/18 02:55:48;;;;;;;4.95;2.60;;;;;;;-0.11;59.47;100345.53;5110384;28;20059;-78
2022/04/18 02:58:16;;;;;;;6.15;2.97;;;;;;;0.16;59.44;100367.53;5086457;28;20078;-77
2022/04/18 03:00:44;;;;;;;5.50;2.72;;;;;;;0.16;59.53;100359.84;5074426;28;20150;-77
2022/04/18 03:03:11;;;;;;;4.85;2.63;;;;;;;0.14;59.26;100340.88;5058295;28;20097;-77
2022/04/18 03:05:38;;;;;;;5.63;2.90;;;;;;;0.37;59.10;100359.22;5074499;28;20058;-77
2022/04/18 03:08:07;;;;;;;4.70;2.53;;;;;;;0.45;59.06;100365.59;5073765;28;20051;-77
2022/04/18 03:13:25;;;;;;;;;;;;;;;0.45;58.66;100367.31;5081887;28;20063;-77
2022/04/18 03:15:54;;;;;;;7.13;2.70;;;;;;;0.58;58.94;100367.13;5111021;28;20408;-78
2022/04/18 03:18:22;;;;;;;5.85;2.85;;;;;;;0.73;58.38;100364.47;5094377;28;20059;-78
2022/04/18 03:20:50;;;;;;;9.07;2.72;;;;;;;0.97;58.10;100362.25;5077932;28;20051;-79
2022/04/18 03:23:17;;;;;;;5.78;3.03;;;;;;;1.16;57.48;100351.16;5077874;28;20424;-78
2022/04/18 03:26:04;;;;;;;5.65;2.80;;;;;;;1.32;57.54;100361.41;5113099;28;20052;-80
2022/04/18 03:28:40;;;;;;;3.47;2.30;;;;;;;3.04;54.54;100353.63;5094915;28;20104;-78
2022/04/18 03:31:07;;;;;;;6.32;2.92;;;;;;;6.35;46.90;100329.72;5094953;28;20093;-81
2022/04/18 03:33:43;;;;;;;4.55;2.58;;;;;;;8.61;41.56;100339.34;5094776;28;20574;-81
2022/04/18 03:41:45;;;;;;;5.75;2.58;;;;;;;8.06;41.65;100335.59;5094801;28;20048;-78
2022/04/18 03:44:12;;;;;;;5.53;2.92;;;;;;;6.28;45.29;100350.25;5095096;28;20051;-78
2022/04/18 03:46:40;;;;;;;7.75;3.13;;;;;;;5.49;47.10;100347.88;5113249;28;20054;-80
2022/04/18 03:49:07;;;;;;;6.63;3.33;;;;;;;5.18;48.42;100332.19;5120075;28;20425;-79
2022/04/18 03:51:37;;;;;;;4.47;2.75;;;;;;;4.82;48.27;100317.16;5098860;28;20055;-77
2022/04/18 03:54:07;;;;;;;5.13;2.80;;;;;;;4.72;49.42;100340.16;5098201;28;20166;-78
2022/04/18 03:56:37;;;;;;;7.10;3.17;;;;;;;4.74;49.49;100327.28;5098100;28;20055;-81
2022/04/18 03:59:24;;;;;;;4.72;2.90;;;;;;;4.81;49.64;100343.91;5096817;28;20052;-79
2022/04/18 04:02:02;;;;;;;6.50;3.00;;;;;;;4.89;49.38;100340.75;5095338;28;20497;-79
2022/04/18 04:04:32;;;;;;;5.30;3.25;;;;;;;4.94;49.26;100315.00;5076836;28;20488;-78
2022/04/18 04:07:03;;;;;;;7.80;3.28;;;;;;;5.31;48.67;100340.41;5085725;28;20058;-78
2022/04/18 04:09:29;;;;;;;4.90;3.00;;;;;;;5.10;48.58;100319.00;5097315;28;20050;-78
2022/04/18 04:11:56;;;;;;;6.25;3.17;;;;;;;5.10;49.03;100348.34;5097742;28;20067;-78
2022/04/18 04:14:24;;;;;;;6.53;2.85;;;;;;;5.07;49.02;100339.59;5098779;28;20516;-78
2022/04/18 04:16:51;;;;;;;7.07;3.38;;;;;;;5.17;48.84;100314.91;5133763;27;20040;-79
2022/04/18 04:19:18;;;;;;;4.80;2.85;;;;;;;5.44;48.55;100344.28;5097552;28;20047;-81
2022/04/18 04:21:46;;;;;;;4.95;2.90;;;;;;;5.59;48.38;100323.13;5096905;28;20082;-79
2022/04/18 04:24:13;;;;;;;7.80;3.22;;;;;;;5.94;47.75;100350.16;5097581;28;20048;-80
2022/04/18 04:26:44;;;;;;;4.35;3.22;;;;;;;5.92;47.84;100325.88;5104752;28;20063;-80
2022/04/18 04:29:18;;;;;;;5.05;3.05;;;;;;;5.93;48.05;100308.59;5061574;28;20129;-80
2022/04/18 04:31:54;;;;;;;6.28;3.30;;;;;;;5.86;48.11;100332.59;5074706;28;20052;-80
2022/04/18 04:34:23;;;;;;;4.78;3.00;;;;;;;5.88;48.81;100339.56;5090365;28;20049;-80
2022/04/18 04:37:07;;;;;;;4.90;3.00;;;;;;;5.92;48.75;100338.81;5057056;28;20424;-82
2022/04/18 04:39:35;;;;;;;6.95;3.20;;;;;;;6.01;48.89;100343.44;5090646;28;20056;-80
2022/04/18 04:42:03;;;;;;;5.40;3.15;;;;;;;6.09;48.78;100334.16;5090351;28;20056;-80
2022/04/18 04:44:30;;;;;;;8.90;3.42;;;;;;;6.04;48.86;100338.31;5056663;28;20052;-82
2022/04/18 04:47:00;;;;;;;5.75;3.70;;;;;;;5.97;49.31;100333.81;5056917;28;20055;-82
2022/04/18 04:49:30;;;;;;;6.68;3.65;;;;;;;6.06;48.95;100320.22;5057110;28;20498;-80
2022/04/18 04:52:15;;;;;;;8.07;4.07;;;;;;;6.12;49.36;100336.84;5057287;28;20063;-79
2022/04/18 04:54:44;;;;;;;9.40;3.92;;;;;;;6.22;48.75;100342.31;5056491;28;20147;-77
2022/04/18 04:57:17;;;;;;;5.53;3.60;;;;;;;6.23;48.87;100324.19;5056742;28;20063;-77
2022/04/18 05:00:05;;;;;;;5.85;3.22;;;;;;;6.08;49.02;100337.59;5073402;28;20060;-79
2022/04/18 05:02:50;;;;;;;5.22;3.10;;;;;;;5.97;49.23;100319.97;5042325;28;20056;-80
2022/04/18 05:05:20;;;;;;;9.10;3.60;;;;;;;6.15;49.02;100331.75;5056549;28;20048;-79
2022/04/18 05:07:47;;;;;;;7.05;3.78;;;;;;;6.26;49.00;100319.09;5074475;28;20061;-80
2022/04/18 05:10:17;;;;;;;4.55;3.20;;;;;;;6.31;48.45;100319.22;5112550;27;20151;-80
2022/04/18 05:12:44;;;;;;;4.75;3.55;;;;;;;6.39;48.67;100327.19;5094369;28;20055;-80
2022/04/18 05:15:11;;;;;;;5.45;3.45;;;;;;;6.42;48.35;100322.97;5076077;28;20052;-78
2022/04/18 05:17:57;;;;;;;7.43;3.38;;;;;;;6.43;48.00;100324.75;5094472;28;20052;-81
2022/04/18 05:20:24;;;;;;;8.93;3.97;;;;;;;6.54;48.32;100314.66;5059553;28;20466;-81
2022/04/18 05:22:54;;;;;;;6.97;3.20;;;;;;;6.44;47.97;100284.09;5075968;28;20051;-80
2022/04/18 05:25:22;;;;;;;7.35;3.88;;;;;;;6.41;48.13;100320.34;5093639;28;20714;-83
2022/04/18 05:27:49;;;;;;;6.05;3.15;;;;;;;6.27;48.27;100326.03;5076029;28;20527;-81
2022/04/18 05:30:40;;;;;;;3.20;2.70;;;;;;;6.47;47.54;100321.38;5094567;28;20048;-82
2022/04/18 05:33:08;;;;;;;6.35;2.95;;;;;;;6.63;47.21;100317.50;5059330;28;20051;-79
2022/04/18 05:35:52;;;;;;;4.20;2.90;;;;;;;6.68;46.87;100323.66;5059208;28;20051;-80
2022/04/18 05:38:24;;;;;;;5.38;2.72;;;;;;;6.66;46.62;100314.09;5038374;28;20072;-80
2022/04/18 05:40:57;;;;;;;4.05;2.72;;;;;;;6.74;46.41;100305.66;5072815;28;20060;-77
2022/04/18 05:43:25;;;;;;;9.60;3.00;;;;;;;6.75;46.55;100298.75;5061668;28;20049;-79
2022/04/18 05:45:51;;;;;;;5.20;3.20;;;;;;;6.73;46.44;100284.84;5039875;28;20090;-79
2022/04/18 05:48:20;;;;;;;7.85;3.53;;;;;;;6.90;46.49;100319.03;5072543;28;20060;-79
2022/04/18 05:50:51;;;;;;;4.68;2.65;;;;;;;6.88;46.15;100318.13;5072070;28;20533;-77
2022/04/18 05:53:26;;;;;;;4.30;2.55;;;;;;;6.85;45.96;100315.47;5055842;28;20041;-82
2022/04/18 05:56:11;;;;;;;6.45;2.63;;;;;;;7.08;45.83;100319.50;5074046;28;20077;-80
2022/04/18 05:58:59;;;;;;;4.43;2.50;;;;;;;7.12;45.84;100302.25;5073977;28;20090;-78
2022/04/18 06:01:29;;;;;;;4.75;2.85;;;;;;;7.27;45.47;100322.53;5093556;28;20052;-81
2022/04/18 06:04:00;;;;;;;3.60;2.50;;;;;;;7.06;45.23;100312.53;5074938;28;20431;-79
2022/04/18 06:06:28;;;;;;;3.90;2.35;;;;;;;6.96;45.53;100322.66;5075331;28;20142;-79
2022/04/18 06:08:55;;;;;;;5.00;2.80;;;;;;;6.85;45.47;100331.91;5092807;28;20432;-79
2022/04/18 06:11:27;;;;;;;5.15;2.83;;;;;;;7.04;45.29;100327.19;5092615;28;20052;-80
2022/04/18 06:14:13;;;;;;;4.10;2.45;;;;;;;7.20;44.70;100305.06;5075406;28;20082;-78
2022/04/18 06:16:46;;;;;;;4.13;2.33;;;;;;;7.32;44.74;100300.16;5075042;28;20237;-80
2022/04/18 06:19:15;;;;;;;3.42;2.65;;;;;;;7.60;43.81;100309.47;5074997;28;20592;-79
2022/04/18 06:21:43;;;;;;;4.15;2.17;;;;;;;7.42;43.81;100324.63;5075082;28;20455;-79
2022/04/18 06:24:10;;;;;;;3.42;2.58;;;;;;;7.38;44.18;100328.91;5093095;28;20559;-80
2022/04/18 06:26:44;;;;;;;5.03;2.22;;;;;;;7.32;43.28;100315.75;5075393;28;20056;-79
2022/04/18 06:29:12;;;;;;;2.80;2.00;;;;;;;7.52;43.58;100319.69;5093797;28;20056;-78
2022/04/18 06:31:46;;;;;;;3.55;2.20;;;;;;;7.48;42.87;100309.19;5075027;28;20147;-78
2022/04/18 06:34:13;;;;;;;2.30;1.40;;;;;;;7.52;43.12;100311.00;5095789;28;20421;-78
2022/04/18 06:36:40;;;;;;;4.53;1.80;;;;;;;7.52;42.50;100292.81;5080639;28;20072;-80
2022/04/18 06:39:34;;;;;;;6.65;1.73;;;;;;;7.57;42.61;100279.09;5089549;28;20055;-79
2022/04/18 06:42:14;;;;;;;3.17;2.08;;;;;;;7.69;42.84;100301.84;5060199;28;20052;-80
2022/04/18 06:44:46;;;;;;;5.13;2.50;;;;;;;7.85;42.49;100313.50;5092565;28;20059;-78
2022/04/18 06:47:15;;;;;;;4.75;2.05;;;;;;;7.74;42.76;100309.75;5092123;28;20052;-79
2022/04/18 06:50:11;;;;;;;6.13;1.98;;;;;;;7.55;43.11;100303.25;5097875;28;20059;-79
2022/04/18 06:52:49;;;;;;;4.03;2.00;;;;;;;7.41;42.85;100302.97;5092821;28;20454;-79
2022/04/18 06:58:32;;;;;;;4.28;1.85;;;;;;;7.29;42.55;100284.47;5092595;28;20055;-79
2022/04/18 07:01:01;;;;;;;2.72;1.70;;;;;;;7.50;42.40;100282.38;5073970;28;20543;-79
2022/04/18 07:03:28;;;;;;;4.57;2.10;;;;;;;7.82;42.11;100310.81;5074256;28;20056;-79
2022/04/18 07:05:55;;;;;;;1.52;1.42;;;;;;;7.98;42.12;100310.31;5075180;28;20052;-79
2022/04/18 07:08:23;;;;;;;6.93;2.15;;;;;;;8.13;41.09;100309.75;5057953;28;20048;-78
2022/04/18 07:10:52;;;;;;;7.40;3.00;;;;;;;7.97;41.33;100281.66;5074625;28;20048;-78
2022/04/18 07:13:19;;;;;;;8.65;4.25;;;;;;;8.10;41.02;100286.25;5092817;28;20055;-79
2022/04/18 07:15:48;;;;;;;8.95;3.88;;;;;;;8.04;41.09;100298.25;5057880;28;20185;-79
2022/04/18 07:18:17;;;;;;;4.63;2.53;;;;;;;8.28;40.85;100296.16;5077558;28;20179;-79
2022/04/18 07:20:44;;;;;;;2.38;1.80;;;;;;;8.46;40.52;100298.25;5077407;28;20052;-79
2022/04/18 07:23:14;;;;;;;2.05;1.83;;;;;;;8.43;39.18;100290.38;5075307;28;20481;-79
2022/04/18 07:25:54;;;;;;;8.23;1.60;;;;;;;8.39;39.00;100278.16;5076515;28;20101;-80
2022/04/18 07:28:38;;;;;;;2.60;1.40;;;;;;;8.73;39.00;100299.59;5077011;28;20051;-79
2022/04/18 07:31:08;;;;;;;4.65;1.90;;;;;;;9.07;38.59;100301.06;5062023;28;20052;-80
2022/04/18 07:33:37;;;;;;;1.45;1.10;;;;;;;8.89;37.94;100313.78;5080425;28;20044;-79
2022/04/18 07:36:11;;;;;;;6.55;1.60;;;;;;;8.46;38.52;100289.59;5079672;28;20047;-80
2022/04/18 07:38:50;;;;;;;;;;;;;;;8.37;39.36;100305.88;5101370;28;20063;-79
2022/04/18 07:41:24;;;;;;;4.05;1.48;;;;;;;8.44;38.53;100299.97;5086739;28;19963;-80
2022/04/18 07:43:53;;;;;;;2.78;1.27;;;;;;;8.57;38.85;100306.28;5098564;28;20120;-79
2022/04/18 07:46:21;;;;;;;2.08;1.60;;;;;;;8.62;38.23;100307.22;5116168;28;20051;-79
2022/04/18 07:48:52;;;;;;;4.30;1.25;;;;;;;8.62;37.46;100291.59;5131955;27;20043;-78
2022/04/18 07:51:35;;;;;;;2.42;1.20;;;;;;;8.51;37.29;100320.03;5097865;28;20155;-77
2022/04/18 07:54:14;;;;;;;2.17;1.20;;;;;;;7.86;37.11;100258.00;5097678;28;20466;-78
2022/04/18 07:56:44;;;;;;;5.55;1.40;;;;;;;7.87;37.11;100291.00;5097737;28;20043;-78
2022/04/18 07:59:12;;;;;;;1.40;1.30;;;;;;;7.87;36.55;100298.78;5098160;28;20051;-79
2022/04/18 08:01:39;;;;;;;7.00;1.42;;;;;;;8.00;36.35;100295.59;5097538;28;20047;-78
2022/04/18 08:04:11;;;;;;;2.60;1.13;;;;;;;8.02;36.90;100297.34;5097905;28;20524;-78
2022/04/18 08:06:39;;;;;;;2.83;1.30;;;;;;;7.95;37.63;100298.94;5097678;28;20055;-78
2022/04/18 08:09:11;;;;;;;1.30;1.20;;;;;;;8.03;37.58;100276.56;5098058;28;20051;-77
2022/04/18 08:11:38;;;;;;;2.92;1.50;;;;;;;8.23;37.74;100295.16;5115551;28;20055;-78
2022/04/18 08:14:07;;;;;;;1.60;1.45;;;;;;;8.10;38.03;100278.44;5097222;28;20043;-78
2022/04/18 08:16:44;;;;;;;1.88;1.45;;;;;;;8.24;38.17;100290.84;5097524;28;20058;-78
2022/04/18 08:19:30;;;;;;;2.03;1.40;;;;;;;8.36;38.05;100294.56;5115689;28;20047;-79
2022/04/18 08:22:02;;;;;;;3.15;1.30;;;;;;;8.38;37.17;100287.66;5083388;28;20516;-78
2022/04/18 08:24:30;;;;;;;1.83;1.27;;;;;;;8.35;36.13;100264.19;5076495;28;20048;-77
2022/04/18 08:27:15;;;;;;;13.50;6.40;;;;;;;8.44;36.62;100267.84;5093094;28;20139;-77
2022/04/18 08:29:52;;;;;;;8.63;3.60;;;;;;;8.60;36.77;100256.84;5053955;28;20055;-78
2022/04/18 08:32:45;;;;;;;4.57;1.80;;;;;;;8.78;36.99;100262.38;5070326;28;20080;-79
2022/04/18 08:35:13;;;;;;;3.60;1.90;;;;;;;8.60;37.27;100231.69;5058896;28;20060;-78
2022/04/18 08:37:40;;;;;;;2.33;1.75;;;;;;;8.79;37.14;100269.31;5076077;28;20047;-79
2022/04/18 08:40:26;;;;;;;2.53;1.67;;;;;;;8.95;36.75;100274.81;5093827;28;20059;-80
2022/04/18 08:42:56;;;;;;;2.58;1.58;;;;;;;8.94;36.11;100257.41;5076921;28;20048;-77
2022/04/18 08:45:25;;;;;;;6.60;2.10;;;;;;;9.06;36.15;100251.53;5076558;28;20044;-80
2022/04/18 08:53:31;;;;;;;2.83;1.73;;;;;;;9.34;35.00;100260.66;5074273;28;20144;-80
2022/04/18 08:56:02;;;;;;;4.20;1.63;;;;;;;9.30;35.12;100235.38;5072803;28;20091;-78
2022/04/18 08:58:31;;;;;;;1.70;1.33;;;;;;;9.43;34.68;100247.75;5059640;28;20073;-79
2022/04/18 09:01:02;;;;;;;4.87;2.77;;;;;;;9.28;34.42;100247.53;5076143;28;20138;-78
2022/04/18 09:03:54;;;;;;;7.00;3.45;;;;;;;9.48;34.44;100235.63;5094125;28;20055;-79
2022/04/18 09:06:37;;;;;;;;;;;;;;;9.45;34.35;100251.25;5076741;28;20070;-80
2022/04/18 09:09:28;;;;;;;1.88;1.38;;;;;;;9.23;34.64;100237.03;5074234;28;20435;-77
2022/04/18 09:12:19;;;;;;;6.10;3.00;;;;;;;9.15;34.78;100236.91;5074060;28;20052;-78
2022/04/18 09:15:03;;;;;;;5.93;2.40;;;;;;;9.26;34.84;100233.59;5068163;28;20062;-80
2022/04/18 09:17:33;;;;;;;12.23;4.40;;;;;;;9.22;34.83;100240.47;5094132;28;20048;-78
2022/04/18 09:20:20;;;;;;;6.75;3.20;;;;;;;9.14;34.97;100248.19;5076053;28;20083;-78
2022/04/18 09:22:51;;;;;;;4.72;2.17;;;;;;;9.09;34.40;100235.94;5075632;28;20060;-79
2022/04/18 09:25:21;;;;;;;3.22;1.60;;;;;;;9.29;33.86;100217.97;5095786;28;20052;-78
2022/04/18 09:27:56;;;;;;;1.90;1.33;;;;;;;9.41;33.52;100242.50;5078812;28;20048;-78
2022/04/18 09:30:31;;;;;;;2.88;1.35;;;;;;;9.22;33.38;100217.88;5075525;28;20052;-77
2022/04/18 09:33:01;;;;;;;2.20;1.73;;;;;;;9.27;33.27;100220.59;5075277;28;20051;-77
2022/04/18 09:35:51;;;;;;;2.72;1.30;;;;;;;9.43;33.21;100224.28;5075297;28;20521;-75
2022/04/18 09:38:19;;;;;;;1.38;1.20;;;;;;;9.32;33.60;100213.69;5058064;28;20147;-78
2022/04/18 09:41:06;;;;;;;1.60;1.50;;;;;;;9.14;33.44;100196.06;5073914;28;20048;-79
2022/04/18 09:43:44;;;;;;;3.08;1.40;;;;;;;9.29;33.69;100195.41;5074788;28;20535;-79
2022/04/18 09:46:17;;;;;;;4.43;1.75;;;;;;;9.67;33.08;100199.38;5076177;28;20142;-78
2022/04/18 09:49:04;;;;;;;3.08;1.88;;;;;;;9.77;33.05;100214.28;5073599;28;20048;-77
2022/04/18 09:51:37;;;;;;;5.35;2.90;;;;;;;9.54;32.52;100196.59;5075284;28;20044;-77
2022/04/18 09:54:11;;;;;;;4.13;1.30;;;;;;;9.55;32.24;100198.38;5079876;28;20043;-76
2022/04/18 09:56:48;;;;;;;5.05;1.55;;;;;;;9.59;32.28;100213.19;5092923;28;20054;-77
2022/04/18 09:59:16;;;;;;;1.30;1.17;;;;;;;9.53;32.65;100193.97;5075465;28;20048;-78
2022/04/18 10:01:44;;;;;;;1.75;1.40;;;;;;;9.71;32.77;100209.00;5093642;28;20105;-79
2022/04/18 10:04:12;;;;;;;2.85;1.58;;;;;;;9.79;33.06;100196.91;5075089;28;20444;-78
2022/04/18 10:06:41;;;;;;;7.18;1.63;;;;;;;9.90;32.31;100213.56;5074930;28;20117;-78
2022/04/18 10:09:09;;;;;;;2.63;1.30;;;;;;;9.58;32.15;100210.56;5092969;28;20059;-78
2022/04/18 10:11:37;;;;;;;2.42;1.27;;;;;;;9.36;32.40;100172.91;5093435;28;20040;-78
2022/04/18 10:14:08;;;;;;;1.75;1.50;;;;;;;9.71;32.24;100204.63;5094729;28;20566;-78
2022/04/18 10:16:46;;;;;;;3.08;1.42;;;;;;;9.53;32.36;100202.69;5078170;28;20055;-78
2022/04/18 10:19:38;;;;;;;1.30;1.20;;;;;;;9.33;32.40;100188.50;5092524;28;20044;-78
2022/04/18 10:22:28;;;;;;;4.18;1.88;;;;;;;9.36;32.96;100205.06;5074498;28;20059;-78
2022/04/18 10:25:05;;;;;;;4.38;1.67;;;;;;;9.40;32.98;100174.72;5033526;28;20051;-77
2022/04/18 10:27:58;;;;;;;3.03;1.73;;;;;;;9.50;32.57;100197.41;5096509;28;20424;-78
2022/04/18 10:30:26;;;;;;;3.17;1.30;;;;;;;9.39;33.13;100185.97;5087141;28;20063;-77
2022/04/18 10:32:54;;;;;;;1.85;1.40;;;;;;;9.35;32.61;100182.44;5093159;28;20512;-78
2022/04/18 10:35:22;;;;;;;2.03;1.50;;;;;;;9.49;33.34;100182.63;5074644;28;20496;-78
2022/04/18 10:37:56;;;;;;;1.58;1.48;;;;;;;9.76;33.00;100179.47;5108643;28;20056;-79
2022/04/18 10:40:37;;;;;;;2.22;1.55;;;;;;;9.80;32.70;100163.00;5104613;28;20055;-78
2022/04/18 10:43:07;;;;;;;2.22;1.48;;;;;;;9.99;33.27;100190.19;5090929;28;20113;-77
2022/04/18 10:45:34;;;;;;;5.40;1.50;;;;;;;10.17;33.15;100184.25;5076627;28;20047;-78
2022/04/18 10:48:11;;;;;;;3.05;1.52;;;;;;;10.29;33.02;100167.91;5074907;28;20048;-79
2022/04/18 10:50:50;;;;;;;2.13;1.15;;;;;;;10.31;32.64;100166.16;5090506;28;20044;-80
2022/04/18 10:53:26;;;;;;;4.72;1.77;;;;;;;10.35;33.01;100160.13;5091667;28;20484;-77
2022/04/18 10:55:53;;;;;;;5.70;1.60;;;;;;;10.53;33.37;100172.44;5092326;28;20520;-77
2022/04/18 10:58:21;;;;;;;2.10;1.60;;;;;;;10.58;33.19;100156.81;5093821;28;20471;-78
2022/04/18 11:00:52;;;;;;;5.68;2.05;;;;;;;10.57;33.21;100153.34;5096798;28;20091;-77
2022/04/18 11:03:35;;;;;;;4.03;1.77;;;;;;;10.54;33.47;100155.94;5096338;28;20056;-77
2022/04/18 11:06:17;;;;;;;4.43;2.05;;;;;;;10.59;33.31;100161.19;5096311;28;20278;-78
2022/04/18 11:09:00;;;;;;;3.53;1.70;;;;;;;10.58;33.31;100151.59;5096754;28;20143;-77
2022/04/18 11:11:35;;;;;;;5.72;2.00;;;;;;;10.71;33.13;100163.91;5096585;28;20044;-77
2022/04/18 11:14:23;;;;;;;3.33;1.98;;;;;;;10.53;32.84;100161.13;5095882;28;20054;-78
2022/04/18 11:16:54;;;;;;;1.98;1.77;;;;;;;10.34;32.98;100153.13;5096565;28;20064;-77
2022/04/18 11:19:24;;;;;;;4.85;1.60;;;;;;;10.41;33.29;100141.91;5096222;28;20052;-77
2022/04/18 11:21:58;;;;;;;3.95;1.70;;;;;;;10.51;33.15;100147.19;5078355;28;20044;-77
2022/04/18 11:24:58;;;;;;;1.75;1.55;;;;;;;10.37;32.61;100160.16;5096232;28;20060;-77
2022/04/18 11:27:28;;;;;;;3.05;1.52;;;;;;;10.19;32.53;100147.75;5096475;28;20478;-78
2022/04/18 11:30:12;;;;;;;2.40;1.98;;;;;;;10.14;32.81;100139.00;5096686;28;20055;-79
2022/04/18 11:32:46;;;;;;;3.70;1.30;;;;;;;9.94;33.50;100121.41;5096839;28;20052;-78
2022/04/18 11:35:14;;;;;;;4.63;1.90;;;;;;;10.24;33.60;100153.91;5095749;28;20105;-77
2022/04/18 11:37:45;;;;;;;1.88;1.58;;;;;;;10.35;33.39;100131.41;5095806;28;20060;-77
2022/04/18 11:40:14;;;;;;;3.63;1.80;;;;;;;10.47;33.04;100140.19;5096047;28;20459;-78
2022/04/18 11:42:42;;;;;;;3.20;2.00;;;;;;;10.53;33.55;100138.50;5095665;28;20138;-79
2022/04/18 11:45:20;;;;;;;2.33;1.77;;;;;;;10.57;32.81;100142.88;5095561;28;20139;-78
2022/04/18 11:47:48;;;;;;;4.25;1.70;;;;;;;10.42;33.32;100132.31;5095957;28;20101;-78
2022/04/18 11:50:23;;;;;;;1.65;1.40;;;;;;;10.41;33.40;100143.63;5096143;28;20060;-79
2022/04/18 11:53:05;;;;;;;2.38;1.52;;;;;;;10.42;33.06;100129.72;5096696;28;20102;-78
2022/04/18 11:55:41;;;;;;;1.90;1.67;;;;;;;10.63;33.02;100134.22;5095844;28;20050;-77
2022/04/18 11:58:10;;;;;;;6.28;2.45;;;;;;;10.64;33.04;100134.22;5095398;28;20054;-78
2022/04/18 12:09:11;;;;;;;1.80;1.58;;;;;;;10.62;33.61;100128.09;5115127;28;20169;-77
2022/04/18 12:11:38;;;;;;;4.00;1.65;;;;;;;10.68;32.76;100102.91;5115625;28;20051;-78
2022/04/18 12:14:06;;;;;;;2.58;1.40;;;;;;;10.74;33.23;100116.03;5115334;28;20043;-78
2022/04/18 12:16:35;;;;;;;4.53;1.60;;;;;;;10.81;32.85;100129.13;5115194;28;20051;-79
2022/04/18 12:19:03;;;;;;;2.72;1.40;;;;;;;10.81;32.76;100109.97;5096925;28;20055;-79
2022/04/18 12:21:30;;;;;;;2.13;1.42;;;;;;;10.97;32.93;100119.66;5115247;28;20059;-77
2022/04/18 12:23:59;;;;;;;3.72;1.63;;;;;;;10.91;32.62;100126.59;5115484;28;20074;-79
2022/04/18 12:26:33;;;;;;;3.15;2.08;;;;;;;10.72;33.54;100112.53;5115325;28;20044;-78